Time;durP1;ratioP1;P1;durP2;ratioP2;P2;SDS_P1;SDS_P2;PMS_P1;PMS_P2;Temp;Humidity;BMP_temperature;BMP_pressure;BME280_temperature;BME280_humidity;BME280_pressure;Samples;Min_cycle;Max_cycle;Signal;HPM_P1;HPM_P2
2021/07/27 00:02:04;;;;;;;6.27;2.60;;;;;;;22.12;63.04;101025.97;5043567;28;20606;-68
2021/07/27 00:04:32;;;;;;;3.40;2.30;;;;;;;22.06;63.11;100996.56;5042926;28;20287;-68
2021/07/27 00:07:00;;;;;;;3.77;2.50;;;;;;;22.07;62.98;100995.56;5043132;28;20210;-68
2021/07/27 00:09:29;;;;;;;5.33;2.43;;;;;;;22.13;63.16;101009.38;5037760;28;20694;-68
2021/07/27 00:11:57;;;;;;;6.03;2.87;;;;;;;22.04;64.30;101004.06;5040583;28;20207;-68
2021/07/27 00:14:26;;;;;;;4.27;2.80;;;;;;;22.11;63.64;101005.13;5040261;28;20617;-67
2021/07/27 00:16:55;;;;;;;4.67;2.67;;;;;;;22.14;63.63;101010.25;5043821;28;20189;-68
2021/07/27 00:19:23;;;;;;;4.23;2.80;;;;;;;22.08;63.96;101005.47;5055875;28;20244;-68
2021/07/27 00:21:51;;;;;;;4.13;2.60;;;;;;;22.07;63.74;100998.28;5044763;28;20217;-68
2021/07/27 00:24:21;;;;;;;9.27;2.60;;;;;;;22.01;64.36;100997.03;5042120;28;20421;-68
2021/07/27 00:26:49;;;;;;;5.87;2.73;;;;;;;21.98;63.88;100995.50;5044460;28;20194;-67
2021/07/27 00:29:17;;;;;;;5.47;2.77;;;;;;;21.97;64.38;100987.47;5041473;28;20226;-67
2021/07/27 00:31:47;;;;;;;5.23;3.00;;;;;;;21.98;64.20;100989.16;5042122;28;20202;-68
2021/07/27 00:34:22;;;;;;;6.33;2.50;;;;;;;21.95;64.59;100995.00;5039333;28;20198;-68
2021/07/27 00:36:51;;;;;;;5.43;2.47;;;;;;;21.96;64.17;100997.56;5042260;28;20285;-68
2021/07/27 00:39:19;;;;;;;3.90;2.93;;;;;;;21.84;64.43;100982.53;5044955;28;20202;-68
2021/07/27 00:41:47;;;;;;;7.30;2.83;;;;;;;21.93;64.80;100986.97;5043986;28;20205;-67
2021/07/27 00:44:15;;;;;;;8.00;2.67;;;;;;;21.87;65.64;100990.38;5042140;28;20218;-68
2021/07/27 00:46:43;;;;;;;5.60;2.90;;;;;;;21.80;64.82;100975.69;5041811;28;20288;-69
2021/07/27 00:49:24;;;;;;;4.50;2.80;;;;;;;21.78;65.99;100972.28;5043878;28;20206;-68
2021/07/27 00:51:56;;;;;;;6.87;2.90;;;;;;;21.59;65.30;100940.66;5045012;28;20700;-68
2021/07/27 00:54:25;;;;;;;6.10;3.00;;;;;;;21.65;66.20;100971.91;5043951;28;20209;-68
2021/07/27 00:56:54;;;;;;;5.63;2.73;;;;;;;21.63;66.24;100963.03;5045491;28;20667;-67
2021/07/27 00:59:22;;;;;;;5.53;2.77;;;;;;;21.57;66.35;100959.09;5044585;28;20478;-67
2021/07/27 01:01:50;;;;;;;4.63;2.90;;;;;;;21.59;66.15;100953.47;5042277;28;20206;-65
2021/07/27 01:04:20;;;;;;;7.27;2.93;;;;;;;21.53;66.11;100951.41;5041466;28;20217;-65
2021/07/27 01:06:48;;;;;;;5.17;2.80;;;;;;;21.51;66.43;100946.13;5056402;28;20200;-65
2021/07/27 01:09:16;;;;;;;6.87;2.70;;;;;;;21.46;66.48;100953.97;5038814;28;20580;-67
2021/07/27 01:11:45;;;;;;;7.13;2.87;;;;;;;21.46;66.69;100944.94;5057408;28;20202;-64
2021/07/27 01:14:13;;;;;;;6.40;2.57;;;;;;;21.45;66.29;100933.16;5040556;28;20221;-65
2021/07/27 01:16:42;;;;;;;3.77;2.40;;;;;;;21.50;65.60;100927.16;5042138;28;20285;-65
2021/07/27 01:19:27;;;;;;;6.57;3.27;;;;;;;21.44;66.31;100930.59;5040768;28;20724;-67
2021/07/27 01:38:58;;;;;;;5.07;2.90;;;;;;;20.99;65.12;100871.75;5042199;28;20204;-65
2021/07/27 01:44:12;;;;;;;4.03;2.70;;;;;;;21.31;65.50;100931.91;5041422;28;20222;-67
2021/07/27 01:46:40;;;;;;;4.77;2.70;;;;;;;21.29;65.64;100927.66;5040991;28;20203;-67
2021/07/27 01:49:08;;;;;;;4.67;2.53;;;;;;;21.30;65.24;100926.63;5043651;28;20194;-67
2021/07/27 01:51:46;;;;;;;4.13;2.70;;;;;;;21.34;65.24;100920.66;5045651;28;20202;-67
2021/07/27 01:54:17;;;;;;;3.80;2.63;;;;;;;21.28;65.48;100909.56;5044761;28;20710;-65
2021/07/27 01:56:48;;;;;;;8.83;2.80;;;;;;;21.32;65.43;100916.38;5044886;28;20209;-65
2021/07/27 01:59:16;;;;;;;11.83;2.70;;;;;;;21.34;64.63;100920.66;5044931;28;20290;-65
2021/07/27 02:01:44;;;;;;;4.47;2.83;;;;;;;21.34;64.41;100907.00;5043676;28;20182;-65
2021/07/27 02:04:12;;;;;;;9.53;3.10;;;;;;;21.17;65.14;100882.53;5047089;28;20224;-65
2021/07/27 02:06:41;;;;;;;3.70;2.63;;;;;;;21.22;64.94;100891.94;5043508;28;20190;-66
2021/07/27 02:09:10;;;;;;;4.10;2.60;;;;;;;21.30;65.05;100907.50;5042337;28;20255;-65
2021/07/27 02:11:42;;;;;;;5.43;3.10;;;;;;;21.28;63.70;100896.75;5043346;28;20240;-66
2021/07/27 02:14:13;;;;;;;7.17;2.60;;;;;;;21.23;64.09;100901.88;5048534;28;20200;-66
2021/07/27 02:16:41;;;;;;;3.60;2.53;;;;;;;21.27;63.90;100900.50;5044472;28;20233;-68
2021/07/27 02:19:09;;;;;;;5.57;2.67;;;;;;;21.25;64.17;100894.34;5044344;28;20205;-65
2021/07/27 02:21:37;;;;;;;5.17;2.80;;;;;;;21.29;62.98;100889.41;5043947;28;21744;-68
2021/07/27 02:24:05;;;;;;;4.40;2.63;;;;;;;21.26;62.98;100897.94;5042961;28;20233;-68
2021/07/27 02:26:34;;;;;;;4.83;2.77;;;;;;;21.00;63.49;100854.34;5047857;28;20214;-65
2021/07/27 02:29:03;;;;;;;11.80;2.90;;;;;;;21.25;62.53;100877.97;5047927;28;20229;-68
2021/07/27 02:31:36;;;;;;;5.73;2.97;;;;;;;21.17;64.20;100891.59;5060602;28;20205;-66
2021/07/27 02:34:05;;;;;;;2.93;2.37;;;;;;;21.17;63.11;100886.13;5042729;28;20580;-68
2021/07/27 02:36:33;;;;;;;9.07;2.73;;;;;;;21.17;63.13;100880.66;5047121;28;20205;-68
2021/07/27 02:39:04;;;;;;;4.47;2.73;;;;;;;21.13;62.97;100878.44;5060134;28;20562;-68
2021/07/27 02:41:33;;;;;;;4.33;2.57;;;;;;;21.09;63.32;100876.03;5043073;28;20206;-67
2021/07/27 02:44:04;;;;;;;7.47;2.90;;;;;;;20.72;64.14;100832.78;5039935;28;20970;-68
2021/07/27 02:46:32;;;;;;;3.53;2.60;;;;;;;21.04;63.92;100885.75;5044111;28;20229;-68
2021/07/27 02:49:02;;;;;;;3.73;2.43;;;;;;;21.03;64.29;100875.84;5044995;28;20289;-68
2021/07/27 02:51:30;;;;;;;4.07;2.40;;;;;;;20.99;64.66;100872.59;5045295;28;20585;-68
2021/07/27 02:53:58;;;;;;;5.03;2.97;;;;;;;20.97;64.03;100871.06;5044579;28;20201;-68
2021/07/27 02:56:27;;;;;;;4.90;2.50;;;;;;;20.89;65.09;100860.13;5042884;28;20206;-68
2021/07/27 02:58:56;;;;;;;4.53;2.43;;;;;;;20.86;64.47;100844.09;5057948;28;20213;-68
2021/07/27 03:01:25;;;;;;;5.97;2.43;;;;;;;20.92;64.33;100862.53;5044587;28;20213;-65
2021/07/27 03:03:53;;;;;;;4.77;2.90;;;;;;;20.94;64.58;100858.59;5041650;28;20209;-66
2021/07/27 03:06:22;;;;;;;5.37;2.40;;;;;;;20.92;64.42;100851.59;5044941;28;20232;-65
2021/07/27 03:09:02;;;;;;;5.50;2.63;;;;;;;20.87;64.64;100862.19;5044404;28;20210;-66
2021/07/27 03:11:31;;;;;;;6.83;2.63;;;;;;;20.88;64.84;100848.34;5042029;28;20205;-66
2021/07/27 03:13:59;;;;;;;5.73;2.80;;;;;;;20.91;64.82;100848.03;5045773;28;20564;-68
2021/07/27 03:16:29;;;;;;;7.80;2.57;;;;;;;20.88;65.17;100845.63;5048391;28;20281;-68
2021/07/27 03:18:57;;;;;;;5.20;2.70;;;;;;;20.95;64.93;100845.81;5041987;28;20213;-65
2021/07/27 03:21:26;;;;;;;4.00;2.53;;;;;;;20.73;64.36;100799.00;5045616;28;20209;-66
2021/07/27 03:23:55;;;;;;;3.77;2.63;;;;;;;20.65;64.22;100788.09;5047302;28;20194;-65
2021/07/27 03:26:24;;;;;;;3.50;2.50;;;;;;;20.97;65.10;100838.28;5060042;28;20248;-68
2021/07/27 03:28:53;;;;;;;3.80;2.60;;;;;;;21.05;64.71;100830.09;5048251;28;20240;-68
2021/07/27 03:31:21;;;;;;;4.90;2.50;;;;;;;21.09;64.85;100837.78;5048803;28;20194;-68
2021/07/27 03:33:50;;;;;;;5.00;3.07;;;;;;;21.18;63.85;100835.94;5046778;28;20577;-68
2021/07/27 03:36:18;;;;;;;5.20;2.87;;;;;;;21.27;63.49;100837.66;5043849;28;20208;-68
2021/07/27 03:38:47;;;;;;;4.50;2.80;;;;;;;21.28;63.31;100833.03;5045976;28;20813;-68
2021/07/27 03:41:15;;;;;;;3.97;2.67;;;;;;;21.35;63.47;100834.91;5044433;28;20658;-68
2021/07/27 03:43:43;;;;;;;3.47;2.40;;;;;;;21.43;62.06;100846.84;5042825;28;20206;-68
2021/07/27 03:46:11;;;;;;;5.40;3.00;;;;;;;21.47;62.42;100842.78;5045826;28;20241;-65
2021/07/27 03:48:39;;;;;;;5.10;2.60;;;;;;;21.54;62.93;100841.06;5046725;28;20293;-65
2021/07/27 03:51:09;;;;;;;4.07;2.73;;;;;;;21.61;63.17;100844.81;5043675;28;20198;-68
2021/07/27 03:53:37;;;;;;;6.27;2.67;;;;;;;21.70;63.19;100838.28;5030966;28;20195;-65
2021/07/27 03:56:10;;;;;;;5.17;2.63;;;;;;;21.80;62.65;100833.50;5031191;28;20623;-65
2021/07/27 03:58:38;;;;;;;6.37;2.73;;;;;;;21.84;62.85;100832.13;5044027;28;20590;-67
2021/07/27 04:01:07;;;;;;;5.17;2.73;;;;;;;21.86;63.20;100826.47;5031322;28;20212;-67
2021/07/27 04:03:35;;;;;;;5.73;2.80;;;;;;;21.95;63.03;100830.88;5031493;28;20214;-65
2021/07/27 04:06:04;;;;;;;3.87;2.80;;;;;;;22.02;63.69;100832.72;5031153;28;20222;-65
2021/07/27 04:08:33;;;;;;;4.23;2.60;;;;;;;22.06;63.55;100816.03;5043323;28;20201;-68
2021/07/27 04:11:02;;;;;;;3.90;2.73;;;;;;;22.17;63.06;100819.22;5031938;28;20279;-68
2021/07/27 04:13:32;;;;;;;8.53;3.00;;;;;;;22.19;63.76;100821.78;5035421;28;20225;-67
2021/07/27 04:16:02;;;;;;;3.97;2.70;;;;;;;22.16;64.72;100808.44;5040698;28;20225;-68
2021/07/27 04:18:30;;;;;;;8.03;2.83;;;;;;;22.22;64.70;100815.94;5050039;28;20284;-67
2021/07/27 04:20:59;;;;;;;5.80;3.00;;;;;;;22.23;65.17;100809.44;5044955;28;20215;-65
2021/07/27 04:23:28;;;;;;;10.03;2.83;;;;;;;22.27;64.96;100810.78;5048542;28;20209;-67
2021/07/27 04:25:58;;;;;;;4.63;2.90;;;;;;;22.17;65.35;100815.63;5049984;28;20218;-65
2021/07/27 04:28:27;;;;;;;7.00;3.00;;;;;;;22.30;65.54;100805.81;5042813;28;20237;-65
2021/07/27 04:30:55;;;;;;;6.33;3.30;;;;;;;22.07;65.58;100760.28;5035897;28;20300;-67
2021/07/27 04:33:36;;;;;;;5.87;3.23;;;;;;;22.38;65.25;100802.19;5050081;28;20186;-67
2021/07/27 04:36:05;;;;;;;7.37;3.17;;;;;;;22.49;65.52;100795.44;5035868;28;20210;-67
2021/07/27 04:38:33;;;;;;;5.30;3.10;;;;;;;22.60;64.98;100800.50;5050281;28;20196;-67
2021/07/27 04:41:06;;;;;;;4.27;2.63;;;;;;;22.71;65.10;100793.78;5048143;28;20202;-67
2021/07/27 04:43:35;;;;;;;4.60;2.90;;;;;;;22.86;64.68;100791.97;5030304;28;20222;-65
2021/07/27 04:46:04;;;;;;;5.80;3.20;;;;;;;22.95;64.37;100793.59;5029386;28;20222;-67
2021/07/27 04:48:32;;;;;;;6.63;3.40;;;;;;;22.97;64.66;100793.47;5049317;28;20209;-65
2021/07/27 04:51:01;;;;;;;5.37;3.00;;;;;;;23.08;64.81;100791.13;5050077;28;20697;-66
2021/07/27 04:53:33;;;;;;;4.77;2.43;;;;;;;23.11;64.86;100778.94;5046496;28;20194;-68
2021/07/27 04:56:03;;;;;;;7.43;3.10;;;;;;;23.11;64.09;100771.56;5048264;28;20206;-65
2021/07/27 04:58:48;;;;;;;4.67;2.87;;;;;;;23.20;65.78;100789.63;5038779;28;20209;-68
2021/07/27 05:01:16;;;;;;;4.93;3.20;;;;;;;23.22;65.26;100793.03;5048083;28;20206;-68
2021/07/27 05:03:45;;;;;;;5.43;3.07;;;;;;;23.28;65.89;100779.66;5048058;28;20221;-65
2021/07/27 05:06:14;;;;;;;7.07;3.07;;;;;;;23.47;64.95;100773.63;5046873;28;20690;-68
2021/07/27 05:08:43;;;;;;;5.03;3.10;;;;;;;23.58;65.70;100770.47;5045154;28;20197;-68
2021/07/27 05:11:12;;;;;;;7.97;3.27;;;;;;;23.65;66.08;100765.94;5047747;28;20205;-68
2021/07/27 05:13:41;;;;;;;4.47;3.30;;;;;;;23.75;65.90;100761.00;5045535;28;20637;-68
2021/07/27 05:16:14;;;;;;;6.20;3.13;;;;;;;23.95;66.08;100768.66;5049014;28;20212;-68
2021/07/27 05:18:42;;;;;;;6.43;3.47;;;;;;;24.00;66.00;100764.31;5043202;28;20213;-66
2021/07/27 05:21:10;;;;;;;6.70;3.40;;;;;;;24.15;65.60;100767.88;5043705;28;20666;-66
2021/07/27 05:23:39;;;;;;;9.53;3.23;;;;;;;24.34;65.22;100769.19;5043240;28;20225;-67
2021/07/27 05:26:07;;;;;;;6.43;3.63;;;;;;;24.53;64.41;100780.63;5036928;28;20260;-66
2021/07/27 05:28:37;;;;;;;6.03;3.60;;;;;;;24.79;64.07;100767.13;5043569;28;20758;-65
2021/07/27 05:31:06;;;;;;;5.40;3.03;;;;;;;24.96;64.19;100767.75;5029992;28;20225;-66
2021/07/27 05:33:34;;;;;;;6.77;3.87;;;;;;;25.05;62.94;100761.94;5040517;28;20240;-66
2021/07/27 05:36:02;;;;;;;5.83;3.77;;;;;;;25.25;63.35;100761.25;5047349;28;20541;-67
2021/07/27 05:38:30;;;;;;;6.30;3.30;;;;;;;25.48;63.21;100761.03;5048880;28;20276;-65
2021/07/27 05:40:59;;;;;;;7.73;3.77;;;;;;;25.79;62.69;100766.97;5047989;28;20214;-65
2021/07/27 05:43:27;;;;;;;6.45;3.80;;;;;;;25.87;62.13;100761.28;5049176;28;20210;-67
2021/07/27 05:45:57;;;;;;;10.25;3.78;;;;;;;26.16;60.79;100754.66;5049181;28;20309;-66
2021/07/27 05:48:25;;;;;;;5.63;3.40;;;;;;;26.30;60.25;100753.63;5048228;28;20206;-68
2021/07/27 05:50:53;;;;;;;7.82;3.42;;;;;;;26.53;60.13;100753.31;5049270;28;20202;-66
2021/07/27 05:53:21;;;;;;;7.90;3.80;;;;;;;26.70;60.08;100750.19;5048105;28;20224;-66
2021/07/27 05:55:50;;;;;;;9.02;4.10;;;;;;;26.73;59.68;100745.09;5048327;28;20202;-66
2021/07/27 05:58:18;;;;;;;6.07;3.78;;;;;;;26.56;58.62;100747.38;5062244;28;20295;-68
2021/07/27 06:00:46;;;;;;;8.82;4.25;;;;;;;26.35;58.90;100725.53;5045522;28;20702;-67
2021/07/27 06:03:15;;;;;;;9.48;3.95;;;;;;;26.47;58.92;100750.56;5047355;28;20301;-67
2021/07/27 06:05:44;;;;;;;7.32;4.40;;;;;;;26.38;58.88;100735.28;5045448;28;20221;-68
2021/07/27 06:08:12;;;;;;;7.60;4.10;;;;;;;26.47;59.35;100743.13;5047534;28;20281;-68
2021/07/27 06:10:40;;;;;;;12.63;4.43;;;;;;;26.63;59.38;100744.66;5045244;28;20200;-67
2021/07/27 06:13:08;;;;;;;7.63;4.38;;;;;;;26.83;58.61;100740.03;5035383;28;20198;-67
2021/07/27 06:15:36;;;;;;;9.68;3.95;;;;;;;27.02;57.60;100732.03;5055780;28;20202;-66
2021/07/27 06:18:04;;;;;;;8.52;4.68;;;;;;;27.14;57.50;100739.44;5040390;28;20557;-67
2021/07/27 06:20:34;;;;;;;10.30;4.63;;;;;;;27.22;57.88;100744.72;5042700;28;20202;-68
2021/07/27 06:23:02;;;;;;;9.82;4.05;;;;;;;27.15;57.00;100740.28;5047754;28;20205;-67
2021/07/27 06:25:30;;;;;;;9.25;4.03;;;;;;;27.29;57.39;100742.00;5048107;28;20208;-66
2021/07/27 06:27:59;;;;;;;12.07;4.25;;;;;;;27.15;56.97;100713.56;5034803;28;21296;-67
2021/07/27 06:30:27;;;;;;;7.18;3.80;;;;;;;27.44;57.06;100727.94;5048913;28;20194;-66
2021/07/27 06:32:57;;;;;;;6.97;4.28;;;;;;;27.37;56.98;100724.34;5049436;28;20277;-65
2021/07/27 06:35:25;;;;;;;5.22;3.80;;;;;;;27.28;56.66;100726.50;5048287;28;20205;-67
2021/07/27 06:37:55;;;;;;;11.30;4.20;;;;;;;27.45;56.95;100724.97;5051261;28;20222;-66
2021/07/27 06:40:23;;;;;;;10.48;4.68;;;;;;;27.48;55.98;100727.28;5051047;28;20595;-65
2021/07/27 06:42:51;;;;;;;13.55;4.32;;;;;;;27.33;56.37;100734.97;5048347;28;20670;-66
2021/07/27 06:45:20;;;;;;;10.35;4.30;;;;;;;27.17;56.86;100732.63;5051137;28;20194;-65
2021/07/27 06:47:48;;;;;;;8.13;4.35;;;;;;;27.17;56.80;100727.97;5045918;28;20218;-68
2021/07/27 06:50:17;;;;;;;12.55;4.28;;;;;;;27.14;57.02;100722.03;5039545;28;20198;-66
2021/07/27 06:52:45;;;;;;;9.93;4.22;;;;;;;27.21;57.48;100722.88;5039159;28;20579;-68
2021/07/27 06:55:17;;;;;;;8.55;4.93;;;;;;;27.35;57.95;100721.81;5048955;28;20245;-66
2021/07/27 06:57:45;;;;;;;8.10;4.68;;;;;;;27.44;57.42;100723.28;5048909;28;20210;-67
2021/07/27 07:00:14;;;;;;;10.80;4.53;;;;;;;27.34;56.53;100672.38;5042703;28;20199;-67
2021/07/27 07:02:42;;;;;;;8.45;4.38;;;;;;;27.73;55.88;100726.66;5046112;28;20190;-67
2021/07/27 07:05:11;;;;;;;10.82;4.68;;;;;;;27.82;54.87;100728.94;5043945;28;20674;-67
2021/07/27 07:07:39;;;;;;;20.15;5.32;;;;;;;27.71;55.36;100726.00;5044523;28;20304;-67
2021/07/27 07:10:08;;;;;;;9.90;4.50;;;;;;;27.86;54.44;100728.50;5041452;28;20195;-67
2021/07/27 07:12:38;;;;;;;10.40;4.70;;;;;;;28.09;54.62;100729.69;5048999;28;20205;-67
2021/07/27 07:15:07;;;;;;;8.18;4.68;;;;;;;28.10;54.75;100728.63;5066521;28;20224;-66
2021/07/27 07:17:35;;;;;;;9.50;4.43;;;;;;;27.71;55.11;100692.88;5061010;28;20198;-67
2021/07/27 07:20:04;;;;;;;11.15;4.65;;;;;;;28.07;55.59;100718.00;5042841;28;20205;-67
2021/07/27 07:22:32;;;;;;;10.68;5.00;;;;;;;28.42;55.57;100714.91;5050988;28;20256;-67
2021/07/27 07:25:00;;;;;;;13.05;5.10;;;;;;;28.41;54.04;100713.19;5051361;28;20555;-67
2021/07/27 07:27:28;;;;;;;10.88;5.05;;;;;;;28.64;54.10;100719.00;5050589;28;20248;-67
2021/07/27 07:29:58;;;;;;;12.95;5.00;;;;;;;28.71;53.40;100702.38;5051148;28;20738;-68
2021/07/27 07:32:27;;;;;;;17.33;5.50;;;;;;;28.99;53.49;100711.13;5050473;28;20194;-67
2021/07/27 07:34:55;;;;;;;10.95;4.63;;;;;;;29.15;52.03;100709.72;5050669;28;20663;-67
2021/07/27 07:37:23;;;;;;;7.43;4.30;;;;;;;29.34;52.19;100713.34;5050605;28;20201;-67
2021/07/27 07:39:52;;;;;;;11.43;4.55;;;;;;;29.60;51.46;100717.81;5050653;28;20225;-67
2021/07/27 07:42:21;;;;;;;8.00;4.47;;;;;;;29.76;50.97;100719.97;5049794;28;20202;-67
2021/07/27 07:44:49;;;;;;;10.45;4.63;;;;;;;29.75;50.98;100717.44;5049682;28;20559;-67
2021/07/27 07:47:18;;;;;;;9.43;4.88;;;;;;;29.92;50.52;100716.56;5047520;28;20218;-67
2021/07/27 07:49:47;;;;;;;8.20;4.47;;;;;;;29.96;51.15;100719.72;5046407;28;20669;-66
2021/07/27 07:52:15;;;;;;;6.53;4.45;;;;;;;30.02;50.76;100721.59;5048008;28;20208;-67
2021/07/27 07:54:43;;;;;;;9.15;5.00;;;;;;;30.07;50.09;100735.63;5046161;28;20217;-66
2021/07/27 07:57:13;;;;;;;14.38;4.63;;;;;;;30.18;50.05;100709.03;5042358;28;20200;-66
2021/07/27 07:59:42;;;;;;;9.15;4.55;;;;;;;29.99;50.18;100720.09;5045362;28;20208;-66
2021/07/27 08:02:10;;;;;;;7.90;4.47;;;;;;;29.77;51.01;100729.13;5062080;28;20197;-65
2021/07/27 08:04:40;;;;;;;7.47;4.53;;;;;;;29.82;51.88;100720.97;5047969;28;20256;-66
2021/07/27 08:07:08;;;;;;;6.10;4.07;;;;;;;29.82;51.65;100727.34;5048269;28;20214;-68
2021/07/27 08:09:36;;;;;;;13.50;5.25;;;;;;;29.47;51.33;100709.66;5048255;28;20198;-67
2021/07/27 08:12:05;;;;;;;12.23;4.55;;;;;;;29.17;51.98;100735.22;5049129;28;20202;-65
2021/07/27 08:14:33;;;;;;;8.98;4.95;;;;;;;28.82;52.37;100729.31;5046089;28;20467;-65
2021/07/27 08:17:02;;;;;;;11.75;4.82;;;;;;;28.82;52.80;100726.56;5046945;28;20187;-65
2021/07/27 08:19:31;;;;;;;6.47;4.75;;;;;;;28.85;53.27;100731.66;5046370;28;20201;-66
2021/07/27 08:22:01;;;;;;;7.15;4.80;;;;;;;28.69;53.86;100718.34;5047269;28;20206;-66
2021/07/27 08:24:31;;;;;;;12.30;4.68;;;;;;;28.64;54.10;100724.53;5045107;28;20198;-66
2021/07/27 08:26:59;;;;;;;8.27;4.72;;;;;;;28.40;53.64;100731.69;5047394;28;20305;-65
2021/07/27 08:29:27;;;;;;;12.85;5.65;;;;;;;28.38;53.70;100720.00;5044257;28;20229;-65
2021/07/27 08:31:56;;;;;;;10.90;4.65;;;;;;;28.25;54.36;100730.31;5047824;28;20357;-68
2021/07/27 08:34:24;;;;;;;12.45;5.18;;;;;;;28.23;54.42;100726.88;5047264;28;20216;-68
2021/07/27 08:36:53;;;;;;;8.77;5.18;;;;;;;27.92;54.41;100724.91;5047994;28;20194;-68
2021/07/27 08:39:22;;;;;;;13.70;5.38;;;;;;;27.97;54.92;100725.94;5044735;28;20206;-68
2021/07/27 08:41:53;;;;;;;7.47;4.72;;;;;;;27.98;54.93;100735.91;5046162;28;20577;-65
2021/07/27 08:44:21;;;;;;;10.02;4.93;;;;;;;27.85;54.89;100719.38;5046398;28;20269;-66
2021/07/27 08:46:50;;;;;;;10.07;5.03;;;;;;;27.95;54.73;100736.34;5047016;28;20748;-66
2021/07/27 08:49:19;;;;;;;9.48;5.47;;;;;;;27.90;54.78;100710.47;5046258;28;20671;-65
2021/07/27 08:51:50;;;;;;;16.20;5.20;;;;;;;28.03;54.28;100733.34;5047773;28;20201;-65
2021/07/27 08:54:19;;;;;;;12.65;6.45;;;;;;;27.73;54.86;100729.41;5043639;28;20202;-65
2021/07/27 08:56:50;;;;;;;8.25;4.53;;;;;;;27.76;54.33;100732.56;5045190;28;20591;-65
2021/07/27 08:59:20;;;;;;;9.68;5.47;;;;;;;27.56;54.02;100706.94;5062792;28;20222;-67
2021/07/27 09:01:48;;;;;;;11.45;5.47;;;;;;;27.66;54.44;100723.91;5047984;28;20201;-67
2021/07/27 09:04:17;;;;;;;11.90;5.70;;;;;;;27.68;54.90;100737.50;5045308;28;20210;-65
2021/07/27 09:06:45;;;;;;;15.30;5.03;;;;;;;27.68;54.88;100727.28;5047074;28;20206;-65
2021/07/27 09:09:13;;;;;;;12.98;6.22;;;;;;;27.65;55.33;100732.41;5047729;28;20229;-65
2021/07/27 09:11:46;;;;;;;13.80;5.18;;;;;;;27.81;53.55;100729.16;5051876;28;20194;-66
2021/07/27 09:14:17;;;;;;;8.63;5.45;;;;;;;27.98;54.34;100730.38;5044219;28;20294;-66
2021/07/27 09:16:46;;;;;;;11.48;5.43;;;;;;;28.12;53.21;100714.59;5045709;28;20568;-70
2021/07/27 09:19:14;;;;;;;7.57;5.20;;;;;;;28.30;52.89;100714.75;5045551;28;20208;-66
2021/07/27 09:21:45;;;;;;;13.82;5.40;;;;;;;28.54;51.78;100726.09;5047112;28;20220;-68
2021/07/27 09:24:24;;;;;;;10.95;5.55;;;;;;;28.70;50.02;100717.25;5045503;28;20202;-68
2021/07/27 09:26:57;;;;;;;11.73;5.80;;;;;;;28.75;49.94;100723.81;5042262;28;20863;-66
2021/07/27 09:29:28;;;;;;;11.90;5.50;;;;;;;28.89;49.99;100715.47;5044818;28;20741;-66
2021/07/27 09:32:00;;;;;;;9.45;4.90;;;;;;;29.07;50.17;100718.28;5046051;28;20651;-68
2021/07/27 09:34:30;;;;;;;8.30;5.60;;;;;;;28.73;50.90;100714.06;5047335;28;20202;-69
2021/07/27 09:37:03;;;;;;;9.48;5.95;;;;;;;28.65;50.13;100715.19;5046819;28;20639;-67
2021/07/27 09:39:31;;;;;;;11.95;5.55;;;;;;;28.50;51.70;100711.88;5043148;28;20581;-67
2021/07/27 09:42:00;;;;;;;9.65;5.03;;;;;;;28.75;52.60;100709.97;5047254;28;20198;-68
2021/07/27 09:44:31;;;;;;;11.30;5.25;;;;;;;28.64;52.75;100696.06;5044207;28;20288;-67
2021/07/27 09:47:01;;;;;;;11.93;5.75;;;;;;;28.70;53.95;100709.81;5044803;28;20209;-66
2021/07/27 09:49:30;;;;;;;11.70;5.18;;;;;;;29.08;52.27;100703.38;5046659;28;20738;-68
2021/07/27 09:51:58;;;;;;;10.07;4.93;;;;;;;29.27;52.58;100702.34;5046856;28;20219;-67
2021/07/27 09:54:27;;;;;;;17.90;5.22;;;;;;;29.25;51.86;100710.03;5042045;28;20213;-67
2021/07/27 09:56:57;;;;;;;10.18;5.25;;;;;;;29.27;51.90;100704.28;5044502;28;20298;-69
2021/07/27 09:59:26;;;;;;;8.63;5.43;;;;;;;29.12;50.60;100701.88;5036791;28;20218;-66
2021/07/27 10:01:59;;;;;;;8.18;5.40;;;;;;;29.12;51.69;100710.16;5033888;28;20662;-69
2021/07/27 10:04:32;;;;;;;8.32;5.28;;;;;;;28.93;52.57;100706.50;5034473;28;20280;-68
2021/07/27 10:07:01;;;;;;;11.57;5.70;;;;;;;28.75;52.62;100704.47;5047090;28;20216;-67
2021/07/27 10:09:32;;;;;;;9.75;5.80;;;;;;;28.20;53.78;100702.47;5049422;28;20300;-70
2021/07/27 10:12:08;;;;;;;13.90;5.90;;;;;;;27.92;54.22;100697.28;5047805;28;20605;-68
2021/07/27 10:14:40;;;;;;;11.75;5.47;;;;;;;27.74;54.95;100700.72;5047917;28;20300;-70
2021/07/27 10:17:14;;;;;;;10.07;5.63;;;;;;;27.62;55.32;100670.22;5044329;28;20198;-71
2021/07/27 10:19:46;;;;;;;11.88;5.60;;;;;;;27.66;55.53;100699.06;5049744;28;20826;-70
2021/07/27 10:22:16;;;;;;;17.83;6.03;;;;;;;26.79;55.47;100576.13;5050246;28;20208;-69
2021/07/27 10:24:47;;;;;;;11.57;5.88;;;;;;;27.39;56.46;100703.75;5051115;28;20224;-70
2021/07/27 10:27:19;;;;;;;10.18;5.80;;;;;;;27.12;57.69;100705.69;5047872;28;20206;-69
2021/07/27 10:29:48;;;;;;;9.85;5.50;;;;;;;27.06;57.64;100701.03;5045127;28;20245;-69
2021/07/27 10:32:18;;;;;;;12.90;5.85;;;;;;;26.84;57.85;100682.97;5050594;28;20198;-69
2021/07/27 10:34:52;;;;;;;11.00;6.05;;;;;;;26.78;58.26;100694.84;5046828;28;21761;-69
2021/07/27 10:37:20;;;;;;;11.27;6.25;;;;;;;26.69;59.17;100690.63;5047836;28;20625;-69
2021/07/27 10:39:51;;;;;;;8.95;5.50;;;;;;;26.71;59.34;100683.84;5050286;28;20198;-68
2021/07/27 10:42:20;;;;;;;16.85;6.78;;;;;;;26.79;59.50;100689.13;5050061;28;20198;-68
2021/07/27 10:44:49;;;;;;;10.13;6.00;;;;;;;26.93;58.57;100685.31;5048870;28;20709;-68
2021/07/27 10:47:24;;;;;;;12.60;6.13;;;;;;;27.16;58.83;100686.81;5049252;28;20244;-69
2021/07/27 10:50:01;;;;;;;11.80;5.63;;;;;;;27.32;58.61;100691.91;5043497;28;20226;-68
2021/07/27 10:52:30;;;;;;;10.38;5.90;;;;;;;27.35;58.50;100687.88;5063719;28;20251;-68
2021/07/27 10:54:59;;;;;;;10.88;6.20;;;;;;;27.46;57.80;100688.03;5047076;28;20202;-68
2021/07/27 10:57:35;;;;;;;12.93;6.53;;;;;;;27.34;57.30;100683.41;5049574;28;20447;-68
2021/07/27 11:00:04;;;;;;;13.00;6.38;;;;;;;27.54;56.77;100685.03;5049459;28;20244;-68
2021/07/27 11:02:34;;;;;;;15.20;6.28;;;;;;;27.66;56.16;100698.22;5046166;28;20216;-68
2021/07/27 11:05:02;;;;;;;14.10;6.63;;;;;;;27.83;55.88;100693.91;5060888;28;20291;-68
2021/07/27 11:07:34;;;;;;;15.07;6.30;;;;;;;27.80;54.50;100678.63;5048077;28;20225;-68
2021/07/27 11:10:04;;;;;;;13.32;6.15;;;;;;;27.86;54.13;100687.97;5047790;28;20217;-69
2021/07/27 11:12:33;;;;;;;13.90;6.53;;;;;;;27.67;53.16;100699.91;5050720;28;20202;-68
2021/07/27 11:15:07;;;;;;;11.10;6.45;;;;;;;27.24;53.35;100681.06;5048076;28;20197;-68
2021/07/27 11:17:37;;;;;;;14.65;6.68;;;;;;;27.16;54.15;100687.66;5034330;28;20202;-69
2021/07/27 11:20:08;;;;;;;17.05;6.53;;;;;;;27.14;53.79;100688.94;5043746;28;20202;-68
2021/07/27 11:22:37;;;;;;;8.90;5.95;;;;;;;26.75;54.62;100657.53;5061642;28;20267;-69
2021/07/27 11:25:06;;;;;;;9.80;6.10;;;;;;;26.79;55.49;100689.13;5038689;28;20194;-69
2021/07/27 11:27:34;;;;;;;11.80;6.43;;;;;;;27.04;55.03;100685.78;5045405;28;20294;-69
2021/07/27 11:30:07;;;;;;;11.52;6.22;;;;;;;26.97;55.54;100677.50;5036457;28;20699;-69
2021/07/27 11:32:42;;;;;;;14.85;6.10;;;;;;;27.13;55.68;100681.72;5054357;28;20293;-69
2021/07/27 11:35:12;;;;;;;15.65;6.35;;;;;;;27.08;56.02;100656.72;5036453;28;20222;-69
2021/07/27 11:37:42;;;;;;;12.82;5.82;;;;;;;27.51;55.88;100684.63;5040709;28;20247;-69
2021/07/27 11:40:23;;;;;;;10.20;5.88;;;;;;;27.28;55.50;100629.97;5059201;28;20256;-69
2021/07/27 11:43:00;;;;;;;9.45;5.63;;;;;;;27.62;56.11;100669.38;5060971;28;20256;-68
2021/07/27 11:45:29;;;;;;;16.58;6.18;;;;;;;27.56;54.73;100671.06;5047147;28;20640;-68
2021/07/27 11:47:58;;;;;;;9.00;5.75;;;;;;;27.68;54.09;100666.56;5048445;28;20197;-69
2021/07/27 11:50:28;;;;;;;15.48;6.13;;;;;;;27.72;53.31;100666.97;5048412;28;20224;-68
2021/07/27 11:52:58;;;;;;;11.52;5.82;;;;;;;27.81;52.97;100662.91;5049183;28;20205;-69